sensor_id;sensor_type;location;lat;lon;timestamp;P1;durP1;ratioP1;P2;durP2;ratioP2
24151;SDS011;12311;50.866;4.332;2023-04-03T05:24:51;7.90;;;3.28;;
24151;SDS011;12311;50.866;4.332;2023-04-03T05:27:17;5.28;;;3.45;;
24151;SDS011;12311;50.866;4.332;2023-04-03T05:29:43;4.13;;;2.67;;
24151;SDS011;12311;50.866;4.332;2023-04-03T05:32:09;5.72;;;3.53;;
24151;SDS011;12311;50.866;4.332;2023-04-03T05:34:35;7.45;;;2.90;;
24151;SDS011;12311;50.866;4.332;2023-04-03T05:37:01;4.57;;;3.10;;
24151;SDS011;12311;50.866;4.332;2023-04-03T05:39:29;6.47;;;2.97;;
24151;SDS011;12311;50.866;4.332;2023-04-03T05:41:56;3.85;;;2.70;;
24151;SDS011;12311;50.866;4.332;2023-04-03T05:44:22;9.98;;;3.35;;
24151;SDS011;12311;50.866;4.332;2023-04-03T05:46:47;6.85;;;3.40;;
24151;SDS011;12311;50.866;4.332;2023-04-03T05:49:13;10.85;;;3.00;;
24151;SDS011;12311;50.866;4.332;2023-04-03T05:51:39;6.88;;;3.05;;
24151;SDS011;12311;50.866;4.332;2023-04-03T05:54:18;7.13;;;3.85;;
24151;SDS011;12311;50.866;4.332;2023-04-03T05:56:49;8.98;;;2.90;;
24151;SDS011;12311;50.866;4.332;2023-04-03T05:59:16;7.95;;;3.47;;
24151;SDS011;12311;50.866;4.332;2023-04-03T06:01:42;4.97;;;3.40;;
24151;SDS011;12311;50.866;4.332;2023-04-03T06:04:08;7.85;;;3.10;;
24151;SDS011;12311;50.866;4.332;2023-04-03T06:06:50;6.38;;;3.40;;
24151;SDS011;12311;50.866;4.332;2023-04-03T06:09:18;9.35;;;3.67;;
24151;SDS011;12311;50.866;4.332;2023-04-03T06:11:45;6.95;;;3.78;;
24151;SDS011;12311;50.866;4.332;2023-04-03T06:14:11;9.55;;;4.00;;
24151;SDS011;12311;50.866;4.332;2023-04-03T06:16:37;6.78;;;4.20;;
24151;SDS011;12311;50.866;4.332;2023-04-03T06:19:04;5.95;;;3.95;;
24151;SDS011;12311;50.866;4.332;2023-04-03T06:21:31;7.95;;;4.30;;
24151;SDS011;12311;50.866;4.332;2023-04-03T06:23:56;8.18;;;3.40;;
24151;SDS011;12311;50.866;4.332;2023-04-03T06:26:22;7.88;;;3.08;;
24151;SDS011;12311;50.866;4.332;2023-04-03T06:28:48;6.00;;;3.42;;
24151;SDS011;12311;50.866;4.332;2023-04-03T06:31:14;8.45;;;3.90;;
24151;SDS011;12311;50.866;4.332;2023-04-03T06:33:40;9.27;;;4.28;;
24151;SDS011;12311;50.866;4.332;2023-04-03T06:36:06;12.80;;;3.50;;
24151;SDS011;12311;50.866;4.332;2023-04-03T06:38:33;8.65;;;4.22;;
24151;SDS011;12311;50.866;4.332;2023-04-03T06:40:59;6.60;;;3.42;;
24151;SDS011;12311;50.866;4.332;2023-04-03T06:43:25;7.97;;;3.55;;
24151;SDS011;12311;50.866;4.332;2023-04-03T06:45:51;7.05;;;3.78;;
24151;SDS011;12311;50.866;4.332;2023-04-03T06:48:17;11.82;;;3.92;;
24151;SDS011;12311;50.866;4.332;2023-04-03T06:50:42;8.23;;;3.83;;
24151;SDS011;12311;50.866;4.332;2023-04-03T06:53:08;5.40;;;3.70;;
24151;SDS011;12311;50.866;4.332;2023-04-03T06:55:35;8.13;;;3.80;;
24151;SDS011;12311;50.866;4.332;2023-04-03T06:58:01;9.60;;;4.22;;
24151;SDS011;12311;50.866;4.332;2023-04-03T07:00:27;9.57;;;4.55;;
24151;SDS011;12311;50.866;4.332;2023-04-03T07:02:53;6.22;;;3.60;;
24151;SDS011;12311;50.866;4.332;2023-04-03T07:05:19;8.02;;;3.60;;
24151;SDS011;12311;50.866;4.332;2023-04-03T07:07:45;9.23;;;3.67;;
24151;SDS011;12311;50.866;4.332;2023-04-03T07:10:10;14.25;;;3.70;;
24151;SDS011;12311;50.866;4.332;2023-04-03T07:12:36;8.30;;;4.50;;
24151;SDS011;12311;50.866;4.332;2023-04-03T07:15:03;7.93;;;3.35;;
24151;SDS011;12311;50.866;4.332;2023-04-03T07:17:32;7.90;;;4.85;;
24151;SDS011;12311;50.866;4.332;2023-04-03T07:19:58;10.00;;;4.53;;
24151;SDS011;12311;50.866;4.332;2023-04-03T07:22:23;12.55;;;5.03;;
24151;SDS011;12311;50.866;4.332;2023-04-03T07:24:49;9.13;;;4.80;;
24151;SDS011;12311;50.866;4.332;2023-04-03T07:27:15;9.00;;;4.72;;
24151;SDS011;12311;50.866;4.332;2023-04-03T07:29:42;13.13;;;4.22;;
24151;SDS011;12311;50.866;4.332;2023-04-03T07:32:09;12.75;;;5.30;;
24151;SDS011;12311;50.866;4.332;2023-04-03T07:34:35;7.22;;;4.75;;
24151;SDS011;12311;50.866;4.332;2023-04-03T07:37:01;8.90;;;4.93;;
24151;SDS011;12311;50.866;4.332;2023-04-03T07:39:27;8.75;;;4.32;;
24151;SDS011;12311;50.866;4.332;2023-04-03T07:41:53;6.43;;;3.45;;
24151;SDS011;12311;50.866;4.332;2023-04-03T07:44:23;17.45;;;4.30;;
24151;SDS011;12311;50.866;4.332;2023-04-03T07:46:49;9.68;;;4.45;;
24151;SDS011;12311;50.866;4.332;2023-04-03T07:49:16;6.50;;;4.05;;
24151;SDS011;12311;50.866;4.332;2023-04-03T07:51:43;9.05;;;3.33;;
24151;SDS011;12311;50.866;4.332;2023-04-03T07:54:09;8.43;;;3.90;;
24151;SDS011;12311;50.866;4.332;2023-04-03T07:56:35;9.75;;;3.85;;
24151;SDS011;12311;50.866;4.332;2023-04-03T07:59:01;8.63;;;4.35;;
24151;SDS011;12311;50.866;4.332;2023-04-03T08:01:27;12.05;;;3.95;;
24151;SDS011;12311;50.866;4.332;2023-04-03T08:03:53;8.10;;;4.05;;
24151;SDS011;12311;50.866;4.332;2023-04-03T08:06:19;13.18;;;4.15;;
24151;SDS011;12311;50.866;4.332;2023-04-03T08:08:45;12.77;;;4.22;;
24151;SDS011;12311;50.866;4.332;2023-04-03T08:11:12;4.82;;;3.78;;
24151;SDS011;12311;50.866;4.332;2023-04-03T08:13:37;6.47;;;3.58;;
24151;SDS011;12311;50.866;4.332;2023-04-03T08:16:11;6.45;;;3.67;;
24151;SDS011;12311;50.866;4.332;2023-04-03T08:18:38;5.63;;;3.60;;
24151;SDS011;12311;50.866;4.332;2023-04-03T08:21:11;7.50;;;4.05;;
24151;SDS011;12311;50.866;4.332;2023-04-03T08:23:37;5.38;;;2.92;;
24151;SDS011;12311;50.866;4.332;2023-04-03T08:26:22;7.35;;;3.58;;
24151;SDS011;12311;50.866;4.332;2023-04-03T08:28:48;5.80;;;2.78;;
24151;SDS011;12311;50.866;4.332;2023-04-03T08:31:16;12.27;;;3.58;;
24151;SDS011;12311;50.866;4.332;2023-04-03T08:33:45;4.32;;;2.85;;
24151;SDS011;12311;50.866;4.332;2023-04-03T08:36:19;11.90;;;3.58;;
24151;SDS011;12311;50.866;4.332;2023-04-03T08:38:50;6.78;;;3.72;;
24151;SDS011;12311;50.866;4.332;2023-04-03T08:41:36;5.95;;;3.53;;
24151;SDS011;12311;50.866;4.332;2023-04-03T08:49:31;7.78;;;4.00;;
24151;SDS011;12311;50.866;4.332;2023-04-03T08:52:02;6.63;;;2.85;;
24151;SDS011;12311;50.866;4.332;2023-04-03T08:54:34;9.05;;;3.60;;
24151;SDS011;12311;50.866;4.332;2023-04-03T08:57:12;9.18;;;3.53;;
24151;SDS011;12311;50.866;4.332;2023-04-03T08:59:38;5.68;;;3.28;;
24151;SDS011;12311;50.866;4.332;2023-04-03T09:02:16;3.65;;;2.72;;
24151;SDS011;12311;50.866;4.332;2023-04-03T09:07:30;14.10;;;2.53;;
24151;SDS011;12311;50.866;4.332;2023-04-03T09:10:04;4.25;;;2.60;;
24151;SDS011;12311;50.866;4.332;2023-04-03T09:12:37;6.65;;;2.55;;
24151;SDS011;12311;50.866;4.332;2023-04-03T09:26:02;3.33;;;2.20;;
24151;SDS011;12311;50.866;4.332;2023-04-03T09:28:34;5.65;;;2.00;;
24151;SDS011;12311;50.866;4.332;2023-04-03T09:31:11;2.53;;;1.55;;
24151;SDS011;12311;50.866;4.332;2023-04-03T09:33:44;2.05;;;1.55;;
24151;SDS011;12311;50.866;4.332;2023-04-03T09:36:12;4.25;;;2.30;;
24151;SDS011;12311;50.866;4.332;2023-04-03T09:38:37;9.32;;;2.10;;
24151;SDS011;12311;50.866;4.332;2023-04-03T09:41:04;5.78;;;1.85;;
24151;SDS011;12311;50.866;4.332;2023-04-03T09:43:42;7.30;;;1.60;;
24151;SDS011;12311;50.866;4.332;2023-04-03T09:48:57;3.22;;;1.70;;
24151;SDS011;12311;50.866;4.332;2023-04-03T09:51:25;1.70;;;1.10;;
24151;SDS011;12311;50.866;4.332;2023-04-03T09:53:55;2.75;;;1.35;;
24151;SDS011;12311;50.866;4.332;2023-04-03T09:56:22;1.95;;;1.50;;
24151;SDS011;12311;50.866;4.332;2023-04-03T10:01:29;1.75;;;1.10;;
24151;SDS011;12311;50.866;4.332;2023-04-03T10:06:38;1.48;;;0.93;;
24151;SDS011;12311;50.866;4.332;2023-04-03T10:11:58;2.65;;;1.48;;
24151;SDS011;12311;50.866;4.332;2023-04-03T10:14:24;6.28;;;1.88;;
24151;SDS011;12311;50.866;4.332;2023-04-03T10:28:04;7.68;;;1.10;;
24151;SDS011;12311;50.866;4.332;2023-04-03T10:30:42;3.42;;;1.10;;
24151;SDS011;12311;50.866;4.332;2023-04-03T10:39:24;4.45;;;1.00;;
24151;SDS011;12311;50.866;4.332;2023-04-03T10:42:08;1.33;;;1.02;;
24151;SDS011;12311;50.866;4.332;2023-04-03T10:47:16;1.70;;;0.95;;
24151;SDS011;12311;50.866;4.332;2023-04-03T10:52:17;2.47;;;1.05;;
24151;SDS011;12311;50.866;4.332;2023-04-03T10:55:01;1.48;;;1.10;;
24151;SDS011;12311;50.866;4.332;2023-04-03T10:57:28;5.90;;;1.27;;
24151;SDS011;12311;50.866;4.332;2023-04-03T10:59:59;1.38;;;0.95;;
24151;SDS011;12311;50.866;4.332;2023-04-03T11:02:33;1.00;;;0.90;;
24151;SDS011;12311;50.866;4.332;2023-04-03T11:05:06;5.68;;;1.00;;
24151;SDS011;12311;50.866;4.332;2023-04-03T11:07:42;2.05;;;0.80;;
24151;SDS011;12311;50.866;4.332;2023-04-03T11:10:22;1.95;;;0.80;;
24151;SDS011;12311;50.866;4.332;2023-04-03T11:13:01;1.55;;;0.77;;
24151;SDS011;12311;50.866;4.332;2023-04-03T11:15:48;2.40;;;1.27;;
24151;SDS011;12311;50.866;4.332;2023-04-03T11:18:21;2.60;;;0.98;;
24151;SDS011;12311;50.866;4.332;2023-04-03T11:21:06;2.33;;;1.15;;
24151;SDS011;12311;50.866;4.332;2023-04-03T11:23:45;1.95;;;1.17;;
24151;SDS011;12311;50.866;4.332;2023-04-03T11:26:12;2.58;;;1.52;;
24151;SDS011;12311;50.866;4.332;2023-04-03T11:28:42;3.13;;;1.10;;
24151;SDS011;12311;50.866;4.332;2023-04-03T11:31:20;2.63;;;1.35;;
24151;SDS011;12311;50.866;4.332;2023-04-03T11:36:52;1.00;;;0.98;;
24151;SDS011;12311;50.866;4.332;2023-04-03T11:39:22;1.13;;;0.80;;
24151;SDS011;12311;50.866;4.332;2023-04-03T11:44:40;0.90;;;0.85;;
24151;SDS011;12311;50.866;4.332;2023-04-03T11:47:07;1.20;;;1.00;;
24151;SDS011;12311;50.866;4.332;2023-04-03T11:49:50;1.37;;;0.60;;
24151;SDS011;12311;50.866;4.332;2023-04-03T12:13:36;1.83;;;1.00;;
24151;SDS011;12311;50.866;4.332;2023-04-03T12:16:06;1.60;;;0.80;;
24151;SDS011;12311;50.866;4.332;2023-04-03T12:22:04;1.17;;;0.75;;
24151;SDS011;12311;50.866;4.332;2023-04-03T12:29:33;1.27;;;0.82;;
24151;SDS011;12311;50.866;4.332;2023-04-03T12:40:37;1.33;;;0.63;;
24151;SDS011;12311;50.866;4.332;2023-04-03T12:46:07;1.25;;;0.70;;
24151;SDS011;12311;50.866;4.332;2023-04-03T12:51:21;1.85;;;0.80;;
24151;SDS011;12311;50.866;4.332;2023-04-03T12:54:15;2.90;;;0.75;;
24151;SDS011;12311;50.866;4.332;2023-04-03T12:56:44;1.85;;;0.70;;
24151;SDS011;12311;50.866;4.332;2023-04-03T13:01:54;4.38;;;1.00;;
24151;SDS011;12311;50.866;4.332;2023-04-03T13:04:21;3.45;;;0.90;;
24151;SDS011;12311;50.866;4.332;2023-04-03T13:06:47;1.27;;;0.77;;
24151;SDS011;12311;50.866;4.332;2023-04-03T13:12:14;0.98;;;0.80;;
24151;SDS011;12311;50.866;4.332;2023-04-03T13:14:40;0.90;;;0.73;;
24151;SDS011;12311;50.866;4.332;2023-04-03T13:17:16;1.35;;;0.73;;
24151;SDS011;12311;50.866;4.332;2023-04-03T13:19:43;2.47;;;0.88;;
24151;SDS011;12311;50.866;4.332;2023-04-03T13:22:18;1.17;;;0.65;;
24151;SDS011;12311;50.866;4.332;2023-04-03T13:24:48;1.25;;;0.60;;
24151;SDS011;12311;50.866;4.332;2023-04-03T13:27:15;0.88;;;0.60;;
24151;SDS011;12311;50.866;4.332;2023-04-03T13:29:42;1.60;;;0.95;;
24151;SDS011;12311;50.866;4.332;2023-04-03T13:32:13;11.38;;;1.02;;
24151;SDS011;12311;50.866;4.332;2023-04-03T13:34:46;1.38;;;1.00;;
24151;SDS011;12311;50.866;4.332;2023-04-03T13:37:23;4.00;;;1.05;;
24151;SDS011;12311;50.866;4.332;2023-04-03T13:42:37;2.42;;;0.55;;
24151;SDS011;12311;50.866;4.332;2023-04-03T13:47:54;1.17;;;0.73;;
24151;SDS011;12311;50.866;4.332;2023-04-03T13:50:52;1.38;;;0.65;;
24151;SDS011;12311;50.866;4.332;2023-04-03T13:53:20;1.13;;;0.75;;
24151;SDS011;12311;50.866;4.332;2023-04-03T13:55:57;1.67;;;0.80;;
24151;SDS011;12311;50.866;4.332;2023-04-03T13:58:34;1.42;;;0.50;;
24151;SDS011;12311;50.866;4.332;2023-04-03T14:01:07;1.58;;;0.73;;
24151;SDS011;12311;50.866;4.332;2023-04-03T14:03:46;1.50;;;0.77;;
24151;SDS011;12311;50.866;4.332;2023-04-03T14:06:17;1.10;;;0.82;;
24151;SDS011;12311;50.866;4.332;2023-04-03T14:08:43;0.90;;;0.70;;
24151;SDS011;12311;50.866;4.332;2023-04-03T14:11:14;2.17;;;0.50;;
24151;SDS011;12311;50.866;4.332;2023-04-03T14:16:11;2.80;;;0.90;;
24151;SDS011;12311;50.866;4.332;2023-04-03T14:18:38;4.32;;;0.80;;
24151;SDS011;12311;50.866;4.332;2023-04-03T14:21:04;2.78;;;1.00;;
24151;SDS011;12311;50.866;4.332;2023-04-03T14:23:29;9.65;;;1.42;;
24151;SDS011;12311;50.866;4.332;2023-04-03T14:25:55;1.17;;;0.77;;
24151;SDS011;12311;50.866;4.332;2023-04-03T14:28:21;1.95;;;0.70;;
24151;SDS011;12311;50.866;4.332;2023-04-03T14:30:48;3.22;;;0.55;;
24151;SDS011;12311;50.866;4.332;2023-04-03T14:33:17;1.50;;;0.73;;
24151;SDS011;12311;50.866;4.332;2023-04-03T14:35:44;1.77;;;0.77;;
24151;SDS011;12311;50.866;4.332;2023-04-03T14:38:24;0.75;;;0.60;;
24151;SDS011;12311;50.866;4.332;2023-04-03T14:40:55;1.40;;;0.88;;
24151;SDS011;12311;50.866;4.332;2023-04-03T14:43:21;0.55;;;0.40;;
24151;SDS011;12311;50.866;4.332;2023-04-03T14:45:48;0.50;;;0.50;;
24151;SDS011;12311;50.866;4.332;2023-04-03T14:48:32;0.63;;;0.40;;
24151;SDS011;12311;50.866;4.332;2023-04-03T14:50:58;0.90;;;0.60;;
24151;SDS011;12311;50.866;4.332;2023-04-03T14:53:23;1.30;;;0.70;;
24151;SDS011;12311;50.866;4.332;2023-04-03T14:55:51;1.98;;;0.70;;
24151;SDS011;12311;50.866;4.332;2023-04-03T14:58:18;1.23;;;0.60;;
24151;SDS011;12311;50.866;4.332;2023-04-03T15:00:45;1.40;;;0.50;;
24151;SDS011;12311;50.866;4.332;2023-04-03T15:03:16;5.45;;;0.73;;
24151;SDS011;12311;50.866;4.332;2023-04-03T15:05:43;3.35;;;0.55;;
24151;SDS011;12311;50.866;4.332;2023-04-03T15:08:31;0.98;;;0.60;;
24151;SDS011;12311;50.866;4.332;2023-04-03T15:10:56;0.80;;;0.60;;
24151;SDS011;12311;50.866;4.332;2023-04-03T15:13:23;1.75;;;0.40;;
24151;SDS011;12311;50.866;4.332;2023-04-03T15:15:49;0.77;;;0.50;;
24151;SDS011;12311;50.866;4.332;2023-04-03T15:18:23;1.92;;;0.55;;
24151;SDS011;12311;50.866;4.332;2023-04-03T15:20:51;0.60;;;0.52;;
24151;SDS011;12311;50.866;4.332;2023-04-03T15:23:18;2.08;;;0.60;;
24151;SDS011;12311;50.866;4.332;2023-04-03T15:25:45;1.30;;;0.60;;
24151;SDS011;12311;50.866;4.332;2023-04-03T15:28:20;1.52;;;0.60;;
24151;SDS011;12311;50.866;4.332;2023-04-03T15:30:46;3.70;;;0.55;;
24151;SDS011;12311;50.866;4.332;2023-04-03T15:33:12;2.47;;;0.43;;
24151;SDS011;12311;50.866;4.332;2023-04-03T15:35:38;1.27;;;0.60;;
24151;SDS011;12311;50.866;4.332;2023-04-03T15:38:04;0.90;;;0.47;;
24151;SDS011;12311;50.866;4.332;2023-04-03T15:40:30;2.78;;;0.70;;
24151;SDS011;12311;50.866;4.332;2023-04-03T15:42:55;0.55;;;0.40;;
24151;SDS011;12311;50.866;4.332;2023-04-03T15:45:21;0.60;;;0.55;;
24151;SDS011;12311;50.866;4.332;2023-04-03T15:47:47;1.08;;;0.50;;
24151;SDS011;12311;50.866;4.332;2023-04-03T15:50:13;1.52;;;0.70;;
24151;SDS011;12311;50.866;4.332;2023-04-03T15:52:38;4.63;;;0.60;;
24151;SDS011;12311;50.866;4.332;2023-04-03T15:55:04;0.60;;;0.40;;
24151;SDS011;12311;50.866;4.332;2023-04-03T15:57:31;0.88;;;0.60;;
24151;SDS011;12311;50.866;4.332;2023-04-03T15:59:56;1.67;;;0.80;;
24151;SDS011;12311;50.866;4.332;2023-04-03T16:02:22;3.33;;;1.35;;
24151;SDS011;12311;50.866;4.332;2023-04-03T16:04:52;0.57;;;0.40;;
24151;SDS011;12311;50.866;4.332;2023-04-03T16:07:18;2.80;;;0.98;;
24151;SDS011;12311;50.866;4.332;2023-04-03T16:09:44;0.85;;;0.60;;
24151;SDS011;12311;50.866;4.332;2023-04-03T16:12:10;1.33;;;0.60;;
24151;SDS011;12311;50.866;4.332;2023-04-03T16:14:35;0.65;;;0.52;;
24151;SDS011;12311;50.866;4.332;2023-04-03T16:17:01;0.75;;;0.30;;
24151;SDS011;12311;50.866;4.332;2023-04-03T16:19:27;0.73;;;0.52;;
24151;SDS011;12311;50.866;4.332;2023-04-03T16:21:54;3.28;;;0.85;;
24151;SDS011;12311;50.866;4.332;2023-04-03T16:24:20;5.90;;;0.73;;
24151;SDS011;12311;50.866;4.332;2023-04-03T16:26:46;1.63;;;1.08;;
24151;SDS011;12311;50.866;4.332;2023-04-03T16:29:12;0.90;;;0.60;;
24151;SDS011;12311;50.866;4.332;2023-04-03T16:31:37;1.52;;;0.50;;
24151;SDS011;12311;50.866;4.332;2023-04-03T16:34:03;0.98;;;0.50;;
24151;SDS011;12311;50.866;4.332;2023-04-03T16:36:29;1.23;;;0.80;;
24151;SDS011;12311;50.866;4.332;2023-04-03T16:38:55;0.95;;;0.60;;
24151;SDS011;12311;50.866;4.332;2023-04-03T16:41:20;2.30;;;1.05;;
24151;SDS011;12311;50.866;4.332;2023-04-03T16:43:46;1.65;;;0.63;;
24151;SDS011;12311;50.866;4.332;2023-04-03T16:46:12;1.20;;;0.63;;
24151;SDS011;12311;50.866;4.332;2023-04-03T16:48:37;1.17;;;0.70;;
24151;SDS011;12311;50.866;4.332;2023-04-03T16:51:03;1.40;;;0.70;;
24151;SDS011;12311;50.866;4.332;2023-04-03T16:53:29;1.63;;;0.65;;
24151;SDS011;12311;50.866;4.332;2023-04-03T16:55:56;1.10;;;0.60;;
24151;SDS011;12311;50.866;4.332;2023-04-03T16:58:23;1.98;;;0.82;;
24151;SDS011;12311;50.866;4.332;2023-04-03T17:00:48;1.50;;;0.70;;
24151;SDS011;12311;50.866;4.332;2023-04-03T17:03:14;2.97;;;1.00;;
24151;SDS011;12311;50.866;4.332;2023-04-03T17:05:40;0.68;;;0.60;;
24151;SDS011;12311;50.866;4.332;2023-04-03T17:08:05;1.88;;;0.60;;
24151;SDS011;12311;50.866;4.332;2023-04-03T17:10:31;1.83;;;0.90;;
24151;SDS011;12311;50.866;4.332;2023-04-03T17:12:59;1.00;;;0.70;;
24151;SDS011;12311;50.866;4.332;2023-04-03T17:15:25;3.38;;;1.02;;
24151;SDS011;12311;50.866;4.332;2023-04-03T17:17:51;1.70;;;0.80;;
24151;SDS011;12311;50.866;4.332;2023-04-03T17:20:18;0.80;;;0.50;;
24151;SDS011;12311;50.866;4.332;2023-04-03T17:22:43;2.83;;;1.48;;
24151;SDS011;12311;50.866;4.332;2023-04-03T17:25:10;0.90;;;0.85;;
24151;SDS011;12311;50.866;4.332;2023-04-03T17:27:36;3.53;;;1.10;;
24151;SDS011;12311;50.866;4.332;2023-04-03T17:30:02;1.58;;;0.80;;
24151;SDS011;12311;50.866;4.332;2023-04-03T17:32:29;4.28;;;1.05;;
24151;SDS011;12311;50.866;4.332;2023-04-03T17:34:54;1.15;;;0.70;;
24151;SDS011;12311;50.866;4.332;2023-04-03T17:37:20;4.05;;;0.95;;
24151;SDS011;12311;50.866;4.332;2023-04-03T17:39:46;1.15;;;0.55;;
24151;SDS011;12311;50.866;4.332;2023-04-03T17:42:11;2.33;;;1.08;;
24151;SDS011;12311;50.866;4.332;2023-04-03T17:44:37;2.53;;;0.70;;
24151;SDS011;12311;50.866;4.332;2023-04-03T17:47:03;0.73;;;0.60;;
24151;SDS011;12311;50.866;4.332;2023-04-03T17:49:28;4.28;;;1.15;;
24151;SDS011;12311;50.866;4.332;2023-04-03T17:51:54;2.75;;;0.80;;
24151;SDS011;12311;50.866;4.332;2023-04-03T17:54:20;1.58;;;1.15;;
24151;SDS011;12311;50.866;4.332;2023-04-03T17:56:46;5.30;;;1.65;;
24151;SDS011;12311;50.866;4.332;2023-04-03T17:59:13;10.27;;;1.35;;
24151;SDS011;12311;50.866;4.332;2023-04-03T18:01:39;1.40;;;0.77;;
24151;SDS011;12311;50.866;4.332;2023-04-03T18:04:07;2.33;;;0.98;;
24151;SDS011;12311;50.866;4.332;2023-04-03T18:06:36;1.75;;;0.90;;
24151;SDS011;12311;50.866;4.332;2023-04-03T18:09:13;3.33;;;1.30;;
24151;SDS011;12311;50.866;4.332;2023-04-03T18:11:40;3.22;;;1.58;;
24151;SDS011;12311;50.866;4.332;2023-04-03T18:14:07;3.95;;;0.93;;
24151;SDS011;12311;50.866;4.332;2023-04-03T18:16:34;2.25;;;1.20;;
24151;SDS011;12311;50.866;4.332;2023-04-03T18:19:00;1.73;;;1.13;;
24151;SDS011;12311;50.866;4.332;2023-04-03T18:21:26;2.97;;;1.23;;
24151;SDS011;12311;50.866;4.332;2023-04-03T18:23:53;2.58;;;1.50;;
24151;SDS011;12311;50.866;4.332;2023-04-03T18:26:21;1.65;;;1.08;;
24151;SDS011;12311;50.866;4.332;2023-04-03T18:28:52;2.03;;;1.42;;
24151;SDS011;12311;50.866;4.332;2023-04-03T18:31:21;2.23;;;1.17;;
24151;SDS011;12311;50.866;4.332;2023-04-03T18:33:49;2.47;;;1.25;;
24151;SDS011;12311;50.866;4.332;2023-04-03T18:36:17;1.80;;;1.00;;
24151;SDS011;12311;50.866;4.332;2023-04-03T18:38:43;2.05;;;1.25;;
24151;SDS011;12311;50.866;4.332;2023-04-03T18:41:09;4.97;;;1.50;;
24151;SDS011;12311;50.866;4.332;2023-04-03T18:43:35;4.15;;;1.58;;
24151;SDS011;12311;50.866;4.332;2023-04-03T18:46:01;3.03;;;1.25;;
24151;SDS011;12311;50.866;4.332;2023-04-03T18:48:29;6.28;;;1.60;;
24151;SDS011;12311;50.866;4.332;2023-04-03T18:50:55;5.70;;;1.92;;
24151;SDS011;12311;50.866;4.332;2023-04-03T18:53:21;2.53;;;0.90;;
24151;SDS011;12311;50.866;4.332;2023-04-03T18:55:46;1.15;;;0.90;;
24151;SDS011;12311;50.866;4.332;2023-04-03T18:58:12;4.93;;;1.10;;
24151;SDS011;12311;50.866;4.332;2023-04-03T19:00:38;2.58;;;1.20;;
24151;SDS011;12311;50.866;4.332;2023-04-03T19:03:05;1.58;;;0.90;;
24151;SDS011;12311;50.866;4.332;2023-04-03T19:05:31;1.70;;;1.10;;
24151;SDS011;12311;50.866;4.332;2023-04-03T19:07:57;3.08;;;1.13;;
24151;SDS011;12311;50.866;4.332;2023-04-03T19:10:22;2.53;;;1.10;;
24151;SDS011;12311;50.866;4.332;2023-04-03T19:12:49;2.45;;;1.42;;
24151;SDS011;12311;50.866;4.332;2023-04-03T19:15:16;2.13;;;1.17;;
24151;SDS011;12311;50.866;4.332;2023-04-03T19:17:44;4.72;;;0.90;;
24151;SDS011;12311;50.866;4.332;2023-04-03T19:20:10;1.83;;;0.90;;
24151;SDS011;12311;50.866;4.332;2023-04-03T19:22:36;1.17;;;0.90;;
24151;SDS011;12311;50.866;4.332;2023-04-03T19:25:05;1.48;;;0.80;;
24151;SDS011;12311;50.866;4.332;2023-04-03T19:27:34;2.05;;;0.98;;
24151;SDS011;12311;50.866;4.332;2023-04-03T19:30:01;1.15;;;0.90;;
24151;SDS011;12311;50.866;4.332;2023-04-03T19:32:27;2.35;;;0.90;;
24151;SDS011;12311;50.866;4.332;2023-04-03T19:34:52;5.53;;;0.60;;
24151;SDS011;12311;50.866;4.332;2023-04-03T19:37:18;1.13;;;0.88;;
24151;SDS011;12311;50.866;4.332;2023-04-03T19:39:44;3.97;;;1.38;;
24151;SDS011;12311;50.866;4.332;2023-04-03T19:42:13;3.30;;;1.25;;
24151;SDS011;12311;50.866;4.332;2023-04-03T19:44:39;0.80;;;0.63;;
24151;SDS011;12311;50.866;4.332;2023-04-03T19:47:06;3.60;;;1.20;;
24151;SDS011;12311;50.866;4.332;2023-04-03T19:49:31;1.58;;;1.05;;
24151;SDS011;12311;50.866;4.332;2023-04-03T19:51:57;2.60;;;1.20;;
24151;SDS011;12311;50.866;4.332;2023-04-03T19:54:23;1.55;;;1.40;;
24151;SDS011;12311;50.866;4.332;2023-04-03T19:56:49;7.57;;;1.10;;
24151;SDS011;12311;50.866;4.332;2023-04-03T19:59:15;3.85;;;1.45;;
24151;SDS011;12311;50.866;4.332;2023-04-03T20:01:41;1.38;;;0.85;;
24151;SDS011;12311;50.866;4.332;2023-04-03T20:04:07;2.25;;;1.30;;
24151;SDS011;12311;50.866;4.332;2023-04-03T20:06:33;9.10;;;1.23;;
24151;SDS011;12311;50.866;4.332;2023-04-03T20:09:00;4.15;;;1.15;;
24151;SDS011;12311;50.866;4.332;2023-04-03T20:11:26;3.38;;;1.05;;
24151;SDS011;12311;50.866;4.332;2023-04-03T20:13:52;1.95;;;1.05;;
24151;SDS011;12311;50.866;4.332;2023-04-03T20:16:19;2.85;;;1.40;;
24151;SDS011;12311;50.866;4.332;2023-04-03T20:18:50;1.05;;;0.85;;
24151;SDS011;12311;50.866;4.332;2023-04-03T20:21:17;1.95;;;1.00;;
24151;SDS011;12311;50.866;4.332;2023-04-03T20:23:43;1.38;;;1.00;;
24151;SDS011;12311;50.866;4.332;2023-04-03T20:26:09;1.85;;;0.95;;
24151;SDS011;12311;50.866;4.332;2023-04-03T20:28:50;1.25;;;1.00;;
24151;SDS011;12311;50.866;4.332;2023-04-03T20:31:18;4.05;;;1.35;;
24151;SDS011;12311;50.866;4.332;2023-04-03T20:33:44;2.92;;;0.75;;
24151;SDS011;12311;50.866;4.332;2023-04-03T20:36:11;2.38;;;1.10;;
24151;SDS011;12311;50.866;4.332;2023-04-03T20:38:37;2.25;;;1.10;;
24151;SDS011;12311;50.866;4.332;2023-04-03T20:41:03;1.80;;;1.00;;
24151;SDS011;12311;50.866;4.332;2023-04-03T20:43:29;1.00;;;0.90;;
24151;SDS011;12311;50.866;4.332;2023-04-03T20:45:55;6.03;;;1.50;;
24151;SDS011;12311;50.866;4.332;2023-04-03T20:48:27;1.23;;;0.93;;
24151;SDS011;12311;50.866;4.332;2023-04-03T20:50:55;1.02;;;0.82;;
24151;SDS011;12311;50.866;4.332;2023-04-03T20:53:21;4.90;;;0.70;;
